Time;durP1;ratioP1;P1;durP2;ratioP2;P2;SDS_P1;SDS_P2;PMS_P1;PMS_P2;Temp;Humidity;BMP_temperature;BMP_pressure;BME280_temperature;BME280_humidity;BME280_pressure;Samples;Min_cycle;Max_cycle;Signal;HPM_P1;HPM_P2
2022/08/14 00:01:25;;;;;;;12.30;9.60;;;;;;;;;;5114317;28;20554;-65
2022/08/14 00:03:53;;;;;;;10.47;9.43;;;;;;;;;;5114156;28;20526;-63
2022/08/14 00:06:20;;;;;;;9.03;8.23;;;;;;;;;;5113863;28;20445;-64
2022/08/14 00:08:48;;;;;;;11.97;9.80;;;;;;;;;;5114049;28;20456;-65
2022/08/14 00:11:15;;;;;;;10.33;9.33;;;;;;;;;;5114082;28;20457;-66
2022/08/14 00:13:42;;;;;;;10.70;9.37;;;;;;;;;;5113704;28;20541;-66
2022/08/14 00:16:13;;;;;;;11.77;10.13;;;;;;;;;;5114230;28;20431;-65
2022/08/14 00:18:40;;;;;;;12.93;10.40;;;;;;;;;;5113986;28;20426;-64
2022/08/14 00:21:09;;;;;;;11.60;10.50;;;;;;;;;;5114174;28;20873;-64
2022/08/14 00:23:36;;;;;;;10.53;9.60;;;;;;;;;;5113876;28;20433;-64
2022/08/14 00:26:04;;;;;;;10.80;9.80;;;;;;;;;;5113976;28;20533;-64
2022/08/14 00:28:31;;;;;;;11.97;10.70;;;;;;;;;;5113989;28;20867;-64
2022/08/14 00:30:59;;;;;;;14.60;11.63;;;;;;;;;;5113776;28;20447;-64
2022/08/14 00:33:26;;;;;;;10.67;9.57;;;;;;;;;;5113882;28;20774;-65
2022/08/14 00:35:54;;;;;;;11.87;10.80;;;;;;;;;;5113802;28;20451;-65
2022/08/14 00:38:22;;;;;;;11.10;10.00;;;;;;;;;;5113441;28;20521;-64
2022/08/14 00:40:50;;;;;;;11.50;10.50;;;;;;;;;;5113720;28;20562;-64
2022/08/14 00:43:17;;;;;;;10.37;9.17;;;;;;;;;;5115567;28;20533;-65
2022/08/14 00:45:44;;;;;;;9.97;9.07;;;;;;;;;;5118151;28;20792;-64
2022/08/14 00:48:11;;;;;;;13.37;10.60;;;;;;;;;;5117971;28;20952;-64
2022/08/14 00:50:39;;;;;;;10.53;9.63;;;;;;;;;;5117809;28;20526;-64
2022/08/14 00:53:08;;;;;;;12.17;10.70;;;;;;;;;;5117732;28;20434;-64
2022/08/14 00:55:40;;;;;;;11.30;10.30;;;;;;;;;;5118231;28;20469;-64
2022/08/14 01:00:53;;;;;;;10.57;9.60;;;;;;;;;;5117463;28;20508;-64
2022/08/14 01:03:21;;;;;;;11.17;10.20;;;;;;;;;;5117457;28;20442;-64
2022/08/14 01:05:50;;;;;;;11.03;9.90;;;;;;;;;;5117551;28;20442;-64
2022/08/14 01:08:19;;;;;;;11.07;9.97;;;;;;;;;;5117396;28;20456;-65
2022/08/14 01:10:51;;;;;;;10.30;9.50;;;;;;;;;;5117743;28;20474;-65
2022/08/14 01:13:20;;;;;;;11.37;10.27;;;;;;;;;;5117539;28;20840;-64
2022/08/14 01:15:49;;;;;;;11.33;10.23;;;;;;;;;;5117565;28;20911;-64
2022/08/14 01:21:05;;;;;;;10.60;9.53;;;;;;;;;;5116976;28;20533;-64
2022/08/14 01:23:34;;;;;;;14.00;10.40;;;;;;;;;;5117364;28;20502;-65
2022/08/14 01:26:01;;;;;;;11.70;10.60;;;;;;;;;;5117271;28;20438;-64
2022/08/14 01:28:33;;;;;;;9.80;9.00;;;;;;;;;;5117032;28;20495;-64
2022/08/14 01:31:00;;;;;;;10.93;10.03;;;;;;;;;;5116792;28;20438;-64
2022/08/14 01:33:28;;;;;;;11.13;10.10;;;;;;;;;;5116956;28;20871;-64
2022/08/14 01:35:59;;;;;;;10.40;9.50;;;;;;;;;;5117147;28;20470;-64
2022/08/14 01:38:33;;;;;;;10.83;9.83;;;;;;;;;;5116775;28;20434;-64
2022/08/14 01:41:02;;;;;;;10.00;9.20;;;;;;;;;;5120089;28;20466;-64
2022/08/14 01:43:30;;;;;;;13.87;10.70;;;;;;;;;;5118518;28;20434;-65
2022/08/14 01:45:59;;;;;;;14.53;9.60;;;;;;;;;;5116916;28;20457;-64
2022/08/14 01:48:32;;;;;;;14.63;9.60;;;;;;;;;;5116640;28;20862;-65
2022/08/14 01:51:01;;;;;;;11.77;10.67;;;;;;;;;;5116690;28;20419;-65
2022/08/14 01:53:30;;;;;;;11.80;10.63;;;;;;;;;;5116226;28;20972;-65
2022/08/14 01:55:58;;;;;;;12.17;10.13;;;;;;;;;;5115962;28;20453;-64
2022/08/14 01:58:26;;;;;;;11.30;10.20;;;;;;;;;;5116687;28;20433;-64
2022/08/14 02:00:55;;;;;;;12.13;8.70;;;;;;;;;;5116755;28;20513;-64
2022/08/14 02:03:23;;;;;;;10.50;9.60;;;;;;;;;;5116279;28;20566;-65
2022/08/14 02:05:50;;;;;;;11.10;10.10;;;;;;;;;;5116294;28;20444;-66
2022/08/14 02:08:18;;;;;;;11.20;9.67;;;;;;;;;;5115942;28;20438;-65
2022/08/14 02:11:15;;;;;;;10.33;9.43;;;;;;;;;;5116321;28;20453;-65
2022/08/14 02:13:34;;;;;;;11.70;10.53;;;;;;;;;;5115715;28;20437;-65
2022/08/14 02:16:01;;;;;;;21.07;10.37;;;;;;;;;;5116191;28;20525;-64
2022/08/14 02:18:29;;;;;;;13.67;9.33;;;;;;;;;;5115746;28;20451;-64
2022/08/14 02:20:57;;;;;;;14.40;9.77;;;;;;;;;;5116081;28;21010;-64
2022/08/14 02:23:25;;;;;;;12.47;10.10;;;;;;;;;;5116303;28;20439;-65
2022/08/14 02:25:52;;;;;;;10.80;9.80;;;;;;;;;;5116285;28;20521;-65
2022/08/14 02:28:19;;;;;;;11.23;10.23;;;;;;;;;;5115965;28;20449;-64
2022/08/14 02:30:48;;;;;;;11.47;10.47;;;;;;;;;;5115618;28;20529;-64
2022/08/14 02:33:15;;;;;;;12.47;11.23;;;;;;;;;;5115887;28;20434;-64
2022/08/14 02:35:42;;;;;;;10.87;9.97;;;;;;;;;;5115400;28;20453;-64
2022/08/14 02:38:09;;;;;;;11.70;10.70;;;;;;;;;;5115927;28;20521;-64
2022/08/14 02:40:38;;;;;;;12.27;11.00;;;;;;;;;;5115370;28;20435;-64
2022/08/14 02:43:05;;;;;;;12.10;10.87;;;;;;;;;;5115313;28;20535;-64
2022/08/14 02:45:33;;;;;;;11.33;10.13;;;;;;;;;;5115738;28;20458;-65
2022/08/14 02:48:02;;;;;;;13.27;11.10;;;;;;;;;;5115834;28;20971;-65
2022/08/14 02:50:29;;;;;;;11.23;10.20;;;;;;;;;;5115127;28;21008;-64
2022/08/14 02:52:57;;;;;;;10.97;10.03;;;;;;;;;;5115484;28;20532;-64
2022/08/14 02:55:24;;;;;;;11.80;10.77;;;;;;;;;;5115189;28;20964;-65
2022/08/14 02:57:51;;;;;;;11.77;10.67;;;;;;;;;;5115360;28;20484;-64
2022/08/14 03:00:20;;;;;;;11.70;10.70;;;;;;;;;;5115662;28;20453;-64
2022/08/14 03:02:49;;;;;;;11.07;10.10;;;;;;;;;;5114902;28;20477;-64
2022/08/14 03:05:19;;;;;;;11.20;10.20;;;;;;;;;;5114880;28;20457;-64
2022/08/14 03:07:46;;;;;;;11.27;10.20;;;;;;;;;;5114318;28;20462;-64
2022/08/14 03:10:13;;;;;;;10.70;9.87;;;;;;;;;;5114963;28;20953;-64
2022/08/14 03:12:41;;;;;;;11.50;10.50;;;;;;;;;;5114742;28;20445;-64
2022/08/14 03:15:12;;;;;;;15.80;11.17;;;;;;;;;;5114931;28;20678;-64
2022/08/14 03:17:41;;;;;;;12.77;10.17;;;;;;;;;;5115498;28;20441;-64
2022/08/14 03:20:09;;;;;;;12.43;11.43;;;;;;;;;;5114539;28;20449;-64
2022/08/14 03:22:38;;;;;;;12.13;10.80;;;;;;;;;;5115226;28;20480;-64
2022/08/14 03:25:06;;;;;;;12.67;10.67;;;;;;;;;;5114738;28;20864;-64
2022/08/14 03:27:33;;;;;;;11.47;10.47;;;;;;;;;;5114496;28;20940;-64
2022/08/14 03:30:02;;;;;;;12.40;11.23;;;;;;;;;;5114279;28;20442;-64
2022/08/14 03:32:32;;;;;;;11.37;10.37;;;;;;;;;;5114747;28;20455;-64
2022/08/14 03:34:59;;;;;;;12.33;11.10;;;;;;;;;;5114581;28;20811;-64
2022/08/14 03:37:27;;;;;;;12.57;11.43;;;;;;;;;;5115338;28;20454;-64
2022/08/14 03:39:56;;;;;;;12.67;11.47;;;;;;;;;;5115068;28;20846;-64
2022/08/14 03:42:23;;;;;;;12.27;11.23;;;;;;;;;;5115133;28;20477;-64
2022/08/14 03:44:51;;;;;;;10.90;9.90;;;;;;;;;;5114132;28;20528;-64
2022/08/14 03:47:18;;;;;;;14.33;11.40;;;;;;;;;;5114127;28;20438;-64
2022/08/14 03:49:46;;;;;;;12.60;10.20;;;;;;;;;;5114020;28;20441;-64
2022/08/14 03:52:14;;;;;;;12.27;11.17;;;;;;;;;;5114783;28;20441;-64
2022/08/14 03:54:42;;;;;;;11.80;10.80;;;;;;;;;;5114451;28;20445;-65
2022/08/14 03:57:10;;;;;;;12.20;11.10;;;;;;;;;;5114634;28;20472;-64
2022/08/14 03:59:37;;;;;;;11.83;10.73;;;;;;;;;;5123911;27;20440;-65
2022/08/14 04:02:05;;;;;;;11.93;10.73;;;;;;;;;;5134120;27;20515;-64
2022/08/14 04:04:33;;;;;;;13.90;11.73;;;;;;;;;;5134267;27;20536;-65
2022/08/14 04:07:00;;;;;;;12.73;11.43;;;;;;;;;;5134661;27;20455;-64
2022/08/14 04:09:28;;;;;;;12.30;11.10;;;;;;;;;;5134077;27;20943;-64
2022/08/14 04:11:55;;;;;;;11.60;10.70;;;;;;;;;;5134131;27;20441;-64
2022/08/14 04:14:24;;;;;;;15.03;10.77;;;;;;;;;;5134288;27;20476;-64
2022/08/14 04:16:51;;;;;;;16.63;11.23;;;;;;;;;;5134397;27;20519;-64
2022/08/14 04:19:22;;;;;;;13.57;11.53;;;;;;;;;;5134284;27;20441;-64
2022/08/14 04:21:50;;;;;;;12.70;11.10;;;;;;;;;;5134077;27;20482;-64
2022/08/14 04:24:17;;;;;;;12.67;11.43;;;;;;;;;;5134745;28;20531;-64
2022/08/14 04:26:46;;;;;;;17.20;10.57;;;;;;;;;;5134097;28;21113;-64
2022/08/14 04:29:13;;;;;;;11.60;10.40;;;;;;;;;;5134424;27;20523;-64
2022/08/14 04:31:42;;;;;;;16.40;11.30;;;;;;;;;;5133856;28;20451;-64
2022/08/14 04:34:09;;;;;;;12.90;11.80;;;;;;;;;;5134086;28;20449;-64
2022/08/14 04:43:34;;;;;;;12.53;11.53;;;;;;;;;;5134305;28;20543;-64
2022/08/14 04:45:00;;;;;;;11.87;10.83;;;;;;;;;;5134896;28;20446;-64
2022/08/14 04:50:13;;;;;;;12.37;11.20;;;;;;;;;;5134124;28;20401;-64
2022/08/14 04:52:40;;;;;;;11.60;10.47;;;;;;;;;;5133781;28;20452;-64
2022/08/14 04:55:08;;;;;;;10.83;9.83;;;;;;;;;;5134193;28;20475;-64
2022/08/14 04:57:35;;;;;;;12.33;10.97;;;;;;;;;;5133857;28;20444;-64
2022/08/14 05:00:02;;;;;;;11.90;10.90;;;;;;;;;;5133518;28;20440;-64
2022/08/14 05:02:33;;;;;;;12.43;11.23;;;;;;;;;;5133965;28;20584;-64
2022/08/14 05:05:00;;;;;;;11.23;10.23;;;;;;;;;;5134562;27;20448;-64
2022/08/14 05:07:27;;;;;;;12.17;10.97;;;;;;;;;;5133543;28;20528;-65
2022/08/14 05:09:55;;;;;;;14.23;11.77;;;;;;;;;;5133364;28;20448;-64
2022/08/14 05:12:22;;;;;;;12.30;11.10;;;;;;;;;;5133330;28;20437;-63
2022/08/14 05:14:49;;;;;;;16.57;11.23;;;;;;;;;;5134172;28;20819;-64
2022/08/14 05:17:16;;;;;;;11.37;10.47;;;;;;;;;;5133561;28;20444;-64
2022/08/14 05:19:45;;;;;;;10.60;9.60;;;;;;;;;;5133754;28;20473;-64
2022/08/14 05:22:12;;;;;;;17.10;10.40;;;;;;;;;;5133965;28;20498;-64
2022/08/14 05:24:39;;;;;;;11.87;10.67;;;;;;;;;;5133505;28;20533;-64
2022/08/14 05:27:08;;;;;;;12.07;11.07;;;;;;;;;;5133739;28;20520;-64
2022/08/14 05:29:35;;;;;;;13.53;10.63;;;;;;;;;;5134057;27;20502;-64
2022/08/14 05:32:06;;;;;;;11.37;10.37;;;;;;;;;;5137369;27;20476;-64
2022/08/14 05:34:33;;;;;;;11.87;10.73;;;;;;;;;;5137656;27;20923;-64
2022/08/14 05:37:02;;;;;;;13.43;10.97;;;;;;;;;;5136967;27;20481;-64
2022/08/14 05:39:29;;;;;;;11.70;10.40;;;;;;;;;;5137001;27;20451;-64
2022/08/14 05:41:56;;;;;;;11.70;10.60;;;;;;;;;;5136989;27;20440;-64
2022/08/14 05:44:24;;;;;;;13.40;12.00;;;;;;;;;;5137594;27;20808;-64
2022/08/14 05:46:51;;;;;;;13.10;10.90;;;;;;;;;;5137323;27;20435;-64
2022/08/14 05:49:18;;;;;;;12.70;11.70;;;;;;;;;;5137152;27;20437;-64
2022/08/14 05:51:46;;;;;;;12.10;11.10;;;;;;;;;;5137064;27;20447;-64
2022/08/14 05:54:14;;;;;;;11.40;10.30;;;;;;;;;;5137181;27;20442;-64
2022/08/14 05:56:42;;;;;;;11.57;10.63;;;;;;;;;;5136708;27;20541;-64
2022/08/14 05:59:09;;;;;;;12.03;11.03;;;;;;;;;;5136202;27;20449;-64
2022/08/14 06:01:37;;;;;;;12.17;10.70;;;;;;;;;;5137021;27;20799;-64
2022/08/14 06:04:04;;;;;;;11.83;10.73;;;;;;;;;;5136967;27;20476;-64
2022/08/14 06:06:31;;;;;;;12.23;10.90;;;;;;;;;;5136877;27;20436;-64
2022/08/14 06:08:58;;;;;;;11.93;10.23;;;;;;;;;;5137074;27;20473;-64
2022/08/14 06:11:27;;;;;;;11.50;10.40;;;;;;;;;;5136876;27;20430;-64
2022/08/14 06:13:54;;;;;;;13.27;11.20;;;;;;;;;;5136392;27;20556;-63
2022/08/14 06:16:21;;;;;;;12.17;11.17;;;;;;;;;;5137010;27;20843;-63
2022/08/14 06:18:50;;;;;;;11.63;10.60;;;;;;;;;;5136273;27;20445;-64
2022/08/14 06:21:17;;;;;;;10.97;10.10;;;;;;;;;;5136847;27;20444;-63
2022/08/14 06:23:44;;;;;;;11.40;10.30;;;;;;;;;;5136119;27;20568;-63
2022/08/14 06:26:12;;;;;;;11.00;10.10;;;;;;;;;;5136675;27;20459;-64
2022/08/14 06:28:40;;;;;;;10.97;9.87;;;;;;;;;;5136018;27;21001;-63
2022/08/14 06:31:08;;;;;;;11.07;10.00;;;;;;;;;;5136694;27;20873;-63
2022/08/14 06:33:35;;;;;;;11.13;10.07;;;;;;;;;;5136241;27;20484;-63
2022/08/14 06:36:03;;;;;;;11.93;10.87;;;;;;;;;;5135968;27;20445;-63
2022/08/14 06:38:30;;;;;;;12.30;11.07;;;;;;;;;;5135416;27;20449;-64
2022/08/14 06:40:57;;;;;;;11.27;10.17;;;;;;;;;;5135028;27;20438;-64
2022/08/14 06:43:24;;;;;;;13.50;10.90;;;;;;;;;;5135398;27;20478;-63
2022/08/14 06:45:53;;;;;;;11.10;10.00;;;;;;;;;;5135867;27;20874;-63
2022/08/14 06:48:22;;;;;;;11.50;10.60;;;;;;;;;;5135497;27;20524;-63
2022/08/14 06:50:49;;;;;;;11.10;10.20;;;;;;;;;;5135933;27;20872;-63
2022/08/14 06:53:18;;;;;;;10.70;9.70;;;;;;;;;;5135165;27;20965;-63
2022/08/14 06:55:46;;;;;;;10.33;9.37;;;;;;;;;;5135124;27;20545;-63
2022/08/14 06:58:14;;;;;;;12.00;11.10;;;;;;;;;;5135378;27;20446;-63
2022/08/14 07:05:44;;;;;;;13.20;11.50;;;;;;;;;;5135513;27;20530;-64
2022/08/14 07:06:16;;;;;;;11.30;10.20;;;;;;;;;;5135723;27;20398;-64
2022/08/14 07:08:44;;;;;;;11.27;10.37;;;;;;;;;;5135186;27;20462;-65
2022/08/14 07:11:11;;;;;;;11.00;10.00;;;;;;;;;;5135134;27;20500;-64
2022/08/14 07:13:38;;;;;;;10.67;9.77;;;;;;;;;;5135111;27;20530;-64
2022/08/14 07:16:06;;;;;;;10.90;9.90;;;;;;;;;;5135301;27;20430;-64
2022/08/14 07:18:35;;;;;;;11.23;10.23;;;;;;;;;;5135112;27;20915;-64
2022/08/14 07:21:04;;;;;;;11.50;10.40;;;;;;;;;;5135187;27;20537;-63
2022/08/14 07:23:31;;;;;;;12.33;10.40;;;;;;;;;;5135272;27;20469;-64
2022/08/14 07:26:00;;;;;;;11.10;9.60;;;;;;;;;;5135348;27;20470;-65
2022/08/14 07:28:30;;;;;;;13.00;11.80;;;;;;;;;;5134911;27;20466;-65
2022/08/14 07:30:58;;;;;;;12.53;10.40;;;;;;;;;;5135221;27;20460;-64
2022/08/14 07:33:26;;;;;;;13.00;11.93;;;;;;;;;;5135358;27;20486;-64
2022/08/14 07:35:54;;;;;;;11.10;10.10;;;;;;;;;;5134996;27;20534;-63
2022/08/14 07:38:22;;;;;;;11.00;10.00;;;;;;;;;;5135102;27;20496;-63
2022/08/14 07:40:51;;;;;;;12.00;10.87;;;;;;;;;;5134780;27;20440;-63
2022/08/14 07:43:18;;;;;;;12.83;11.73;;;;;;;;;;5134990;27;20566;-64
2022/08/14 07:45:45;;;;;;;11.87;10.97;;;;;;;;;;5136983;27;20440;-63
2022/08/14 07:48:13;;;;;;;11.43;10.53;;;;;;;;;;5134746;27;20442;-64
2022/08/14 07:50:40;;;;;;;11.17;10.07;;;;;;;;;;5134661;27;20438;-63
2022/08/14 07:53:09;;;;;;;12.17;11.17;;;;;;;;;;5134028;27;20537;-63
2022/08/14 07:55:36;;;;;;;11.40;10.40;;;;;;;;;;5135115;27;20440;-63
2022/08/14 07:58:04;;;;;;;10.87;9.97;;;;;;;;;;5135003;27;20440;-64
2022/08/14 08:00:32;;;;;;;10.93;9.93;;;;;;;;;;5134594;27;20436;-64
2022/08/14 08:02:59;;;;;;;11.57;10.43;;;;;;;;;;5134449;27;20474;-63
2022/08/14 08:05:26;;;;;;;10.30;9.50;;;;;;;;;;5134314;27;20445;-64
2022/08/14 08:07:54;;;;;;;11.40;10.50;;;;;;;;;;5134780;27;20440;-63
2022/08/14 08:10:33;;;;;;;13.23;10.37;;;;;;;;;;5134436;27;20448;-64
2022/08/14 08:13:01;;;;;;;10.33;9.47;;;;;;;;;;5134440;27;20534;-64
2022/08/14 08:15:31;;;;;;;11.23;10.23;;;;;;;;;;5134434;27;20562;-64
2022/08/14 08:18:00;;;;;;;11.33;10.33;;;;;;;;;;5134591;27;20526;-64
2022/08/14 08:20:27;;;;;;;10.37;9.57;;;;;;;;;;5134096;28;20475;-63
2022/08/14 08:22:55;;;;;;;10.37;9.40;;;;;;;;;;5134691;27;20832;-64
2022/08/14 08:25:24;;;;;;;12.43;10.93;;;;;;;;;;5134004;28;20535;-64
2022/08/14 08:27:55;;;;;;;10.10;9.30;;;;;;;;;;5134346;28;20450;-64
2022/08/14 08:30:22;;;;;;;10.30;9.50;;;;;;;;;;5134244;28;20449;-64
2022/08/14 08:32:52;;;;;;;10.50;9.50;;;;;;;;;;5134947;28;20442;-63
2022/08/14 08:35:21;;;;;;;11.40;10.40;;;;;;;;;;5134400;28;20517;-64
2022/08/14 08:37:48;;;;;;;11.13;10.20;;;;;;;;;;5134359;28;20519;-63
2022/08/14 08:40:27;;;;;;;11.63;10.50;;;;;;;;;;5134292;28;20532;-64
2022/08/14 08:42:54;;;;;;;11.87;10.87;;;;;;;;;;5134216;28;20520;-64
2022/08/14 08:45:22;;;;;;;10.13;9.43;;;;;;;;;;5134311;28;20549;-64
2022/08/14 08:47:50;;;;;;;11.67;10.57;;;;;;;;;;5133872;28;20477;-64
2022/08/14 08:50:19;;;;;;;11.77;9.93;;;;;;;;;;5134284;28;20440;-64
2022/08/14 08:52:51;;;;;;;10.57;9.57;;;;;;;;;;5133480;28;20796;-64
2022/08/14 08:55:24;;;;;;;12.20;11.07;;;;;;;;;;5133724;28;20433;-64
2022/08/14 08:57:55;;;;;;;10.63;9.83;;;;;;;;;;5134095;28;20488;-64
2022/08/14 09:00:23;;;;;;;11.40;10.30;;;;;;;;;;5133569;28;20428;-64
2022/08/14 09:02:55;;;;;;;11.83;10.57;;;;;;;;;;5133471;28;20450;-64
2022/08/14 09:05:23;;;;;;;9.57;8.73;;;;;;;;;;5135675;27;20441;-64
2022/08/14 09:07:50;;;;;;;10.60;9.57;;;;;;;;;;5137956;27;20847;-64
2022/08/14 09:10:18;;;;;;;10.33;9.40;;;;;;;;;;5137954;27;20788;-64
2022/08/14 09:12:46;;;;;;;10.07;9.20;;;;;;;;;;5138399;27;20446;-63
2022/08/14 09:15:14;;;;;;;9.73;9.03;;;;;;;;;;5138091;27;20572;-63
2022/08/14 09:17:43;;;;;;;9.60;8.90;;;;;;;;;;5137899;27;20460;-64
2022/08/14 09:20:11;;;;;;;11.73;9.40;;;;;;;;;;5137455;27;20966;-64
2022/08/14 09:22:39;;;;;;;9.97;9.10;;;;;;;;;;5137764;27;20517;-64
2022/08/14 09:25:07;;;;;;;9.07;8.37;;;;;;;;;;5137966;27;20531;-64
2022/08/14 09:27:34;;;;;;;9.40;8.53;;;;;;;;;;5137411;27;20534;-63
2022/08/14 09:30:01;;;;;;;8.30;7.70;;;;;;;;;;5137253;27;20481;-63
2022/08/14 09:32:33;;;;;;;8.23;7.53;;;;;;;;;;5137553;27;20461;-64
2022/08/14 09:35:06;;;;;;;8.53;7.83;;;;;;;;;;5137499;27;20467;-64
2022/08/14 09:37:38;;;;;;;8.80;8.10;;;;;;;;;;5138186;27;20530;-63
2022/08/14 09:40:08;;;;;;;10.80;7.50;;;;;;;;;;5137419;27;20907;-65
2022/08/14 09:42:53;;;;;;;7.10;6.60;;;;;;;;;;5137793;27;20418;-67
2022/08/14 09:45:22;;;;;;;7.83;7.23;;;;;;;;;;5136780;27;20493;-67
2022/08/14 09:47:52;;;;;;;8.40;7.60;;;;;;;;;;5137406;27;20862;-67
2022/08/14 09:50:20;;;;;;;8.07;7.40;;;;;;;;;;5137371;27;20437;-65
2022/08/14 09:52:50;;;;;;;7.80;7.10;;;;;;;;;;5137282;27;20463;-66
2022/08/14 09:55:18;;;;;;;8.50;7.80;;;;;;;;;;5137241;27;20412;-66
2022/08/14 09:57:46;;;;;;;8.30;7.60;;;;;;;;;;5137391;27;20438;-70
2022/08/14 10:00:15;;;;;;;8.20;7.60;;;;;;;;;;5137050;27;20458;-66
2022/08/14 10:02:53;;;;;;;8.10;7.50;;;;;;;;;;5136965;27;20525;-65
2022/08/14 10:05:29;;;;;;;9.43;8.53;;;;;;;;;;5137277;27;20520;-65
2022/08/14 10:07:56;;;;;;;10.47;9.20;;;;;;;;;;5136963;27;20427;-65
2022/08/14 10:10:42;;;;;;;7.83;7.13;;;;;;;;;;5136934;27;20501;-66
2022/08/14 10:13:20;;;;;;;7.10;6.57;;;;;;;;;;5136935;27;20423;-66
2022/08/14 10:15:48;;;;;;;7.77;7.17;;;;;;;;;;5137207;27;20859;-66
2022/08/14 10:18:18;;;;;;;8.03;7.37;;;;;;;;;;5137221;27;20816;-66
2022/08/14 10:20:52;;;;;;;7.70;7.10;;;;;;;;;;5136575;27;20505;-66
2022/08/14 10:23:21;;;;;;;7.73;7.13;;;;;;;;;;5136904;27;20851;-65
2022/08/14 10:25:49;;;;;;;8.47;7.67;;;;;;;;;;5136308;27;20429;-66
2022/08/14 10:28:17;;;;;;;9.50;6.90;;;;;;;;;;5136742;27;20434;-65
2022/08/14 10:30:47;;;;;;;7.33;6.63;;;;;;;;;;5136030;27;20429;-65
2022/08/14 10:33:26;;;;;;;7.10;6.60;;;;;;;;;;5136454;27;20438;-65
2022/08/14 10:35:53;;;;;;;8.00;6.90;;;;;;;;;;5136533;27;20944;-66
2022/08/14 10:38:27;;;;;;;7.93;6.73;;;;;;;;;;5136315;27;20491;-66
2022/08/14 10:40:54;;;;;;;7.00;6.50;;;;;;;;;;5135809;27;20424;-66
2022/08/14 10:43:24;;;;;;;7.33;6.70;;;;;;;;;;5136020;27;20471;-66
2022/08/14 10:45:56;;;;;;;7.77;6.90;;;;;;;;;;5136164;27;20506;-66
2022/08/14 10:48:24;;;;;;;6.77;6.13;;;;;;;;;;5136141;27;20441;-66
2022/08/14 10:50:53;;;;;;;8.00;7.40;;;;;;;;;;5135593;27;20428;-66
2022/08/14 10:53:31;;;;;;;7.30;6.70;;;;;;;;;;5136036;27;20414;-66
2022/08/14 10:55:59;;;;;;;7.80;6.23;;;;;;;;;;5135145;27;20418;-66
2022/08/14 10:58:29;;;;;;;6.70;6.20;;;;;;;;;;5135713;27;20923;-66
2022/08/14 11:00:57;;;;;;;7.10;6.60;;;;;;;;;;5135403;27;20953;-66
2022/08/14 11:03:25;;;;;;;6.67;6.07;;;;;;;;;;5135831;27;20421;-66
2022/08/14 11:05:54;;;;;;;7.90;7.23;;;;;;;;;;5135756;27;20406;-66
2022/08/14 11:08:31;;;;;;;7.53;7.03;;;;;;;;;;5135907;27;20451;-66
2022/08/14 11:11:00;;;;;;;7.37;6.87;;;;;;;;;;5135649;27;20420;-66
2022/08/14 11:13:29;;;;;;;6.97;6.30;;;;;;;;;;5135394;27;20526;-66
2022/08/14 11:15:59;;;;;;;6.90;6.40;;;;;;;;;;5135319;27;20446;-66
2022/08/14 11:18:27;;;;;;;7.53;6.67;;;;;;;;;;5135870;27;20410;-65
2022/08/14 11:20:58;;;;;;;6.43;6.00;;;;;;;;;;5135572;27;20502;-66
2022/08/14 11:23:27;;;;;;;8.47;7.67;;;;;;;;;;5135227;27;20489;-66
2022/08/14 11:25:56;;;;;;;6.93;6.43;;;;;;;;;;5135653;27;20456;-66
2022/08/14 11:28:25;;;;;;;6.70;5.90;;;;;;;;;;5134444;27;20789;-66
2022/08/14 11:30:55;;;;;;;7.00;6.37;;;;;;;;;;5134890;27;20894;-66
2022/08/14 11:33:23;;;;;;;6.20;5.80;;;;;;;;;;5135124;27;20455;-65
2022/08/14 11:35:51;;;;;;;7.07;6.57;;;;;;;;;;5134758;27;20445;-66
2022/08/14 11:38:20;;;;;;;7.20;6.60;;;;;;;;;;5134698;27;21009;-66
2022/08/14 11:40:48;;;;;;;5.90;5.50;;;;;;;;;;5135189;27;20786;-65
2022/08/14 11:43:16;;;;;;;8.13;7.43;;;;;;;;;;5134920;27;20439;-66
2022/08/14 11:45:47;;;;;;;6.83;6.33;;;;;;;;;;5135545;27;20788;-65
2022/08/14 11:48:16;;;;;;;6.20;5.80;;;;;;;;;;5135065;27;20467;-65
2022/08/14 11:50:44;;;;;;;7.03;6.43;;;;;;;;;;5134534;27;20965;-66
2022/08/14 11:53:21;;;;;;;7.43;6.93;;;;;;;;;;5134746;27;20478;-65
2022/08/14 11:55:49;;;;;;;7.10;6.60;;;;;;;;;;5135175;27;20410;-66
2022/08/14 11:58:18;;;;;;;6.93;6.43;;;;;;;;;;5134432;27;20881;-65
2022/08/14 12:00:49;;;;;;;7.60;7.00;;;;;;;;;;5134802;27;20421;-66
2022/08/14 12:03:17;;;;;;;7.30;6.70;;;;;;;;;;5134330;27;20437;-66
2022/08/14 12:05:45;;;;;;;7.60;6.93;;;;;;;;;;5134628;27;20567;-66
2022/08/14 12:08:12;;;;;;;7.60;7.00;;;;;;;;;;5134724;27;20820;-65
2022/08/14 12:10:42;;;;;;;7.33;6.83;;;;;;;;;;5134448;27;20471;-65
2022/08/14 12:13:13;;;;;;;7.70;7.00;;;;;;;;;;5134313;27;20426;-66
2022/08/14 12:15:41;;;;;;;8.03;7.43;;;;;;;;;;5134285;27;20610;-65
2022/08/14 12:18:09;;;;;;;7.53;6.83;;;;;;;;;;5134409;27;20522;-65
2022/08/14 12:20:37;;;;;;;7.83;7.20;;;;;;;;;;5134530;27;20538;-65
2022/08/14 12:23:06;;;;;;;7.00;6.50;;;;;;;;;;5134327;27;20437;-65
2022/08/14 12:25:35;;;;;;;7.43;6.83;;;;;;;;;;5134648;27;20456;-66
2022/08/14 12:28:07;;;;;;;7.40;6.87;;;;;;;;;;5134166;28;20444;-67
2022/08/14 12:30:36;;;;;;;7.73;7.13;;;;;;;;;;5135001;28;20426;-66
2022/08/14 12:33:04;;;;;;;6.90;6.40;;;;;;;;;;5134248;28;20476;-66
2022/08/14 12:35:38;;;;;;;7.97;7.40;;;;;;;;;;5134289;28;20447;-65
2022/08/14 12:38:06;;;;;;;7.07;6.57;;;;;;;;;;5134201;27;20446;-65
2022/08/14 12:40:33;;;;;;;7.63;7.03;;;;;;;;;;5138084;27;20412;-66
2022/08/14 12:43:02;;;;;;;9.60;8.17;;;;;;;;;;5138121;27;20490;-66
2022/08/14 12:45:34;;;;;;;7.80;7.20;;;;;;;;;;5138641;27;20481;-66
2022/08/14 12:48:02;;;;;;;7.40;6.53;;;;;;;;;;5138314;27;20478;-66
2022/08/14 12:50:37;;;;;;;7.93;7.33;;;;;;;;;;5138379;27;20517;-65
2022/08/14 12:53:04;;;;;;;7.33;6.73;;;;;;;;;;5137921;27;20441;-66
2022/08/14 12:55:34;;;;;;;6.77;6.27;;;;;;;;;;5138332;27;20529;-65
2022/08/14 12:58:04;;;;;;;6.40;5.90;;;;;;;;;;5138026;27;20444;-66
2022/08/14 13:00:33;;;;;;;7.00;6.30;;;;;;;;;;5137971;27;20451;-66
2022/08/14 13:03:00;;;;;;;6.30;5.80;;;;;;;;;;5137992;27;20474;-65
2022/08/14 13:05:30;;;;;;;7.27;6.60;;;;;;;;;;5138107;27;21031;-65
2022/08/14 13:07:58;;;;;;;6.80;6.30;;;;;;;;;;5137880;27;20767;-65
2022/08/14 13:10:25;;;;;;;6.97;6.47;;;;;;;;;;5137845;27;20444;-65
2022/08/14 13:12:55;;;;;;;8.20;7.47;;;;;;;;;;5138072;27;20862;-65
2022/08/14 13:15:23;;;;;;;7.40;6.70;;;;;;;;;;5138040;27;20457;-65
2022/08/14 13:17:52;;;;;;;7.40;6.80;;;;;;;;;;5137779;27;20486;-65
2022/08/14 13:20:21;;;;;;;6.03;5.63;;;;;;;;;;5138301;27;20526;-66
2022/08/14 13:22:48;;;;;;;7.30;6.80;;;;;;;;;;5138122;27;20531;-66
2022/08/14 13:25:18;;;;;;;12.33;6.43;;;;;;;;;;5138116;27;20885;-66
2022/08/14 13:27:46;;;;;;;7.27;6.60;;;;;;;;;;5137811;27;20519;-66
2022/08/14 13:30:14;;;;;;;6.93;6.33;;;;;;;;;;5137602;27;20518;-66
2022/08/14 13:32:43;;;;;;;6.90;6.30;;;;;;;;;;5137170;27;20529;-66
2022/08/14 13:35:12;;;;;;;6.87;6.37;;;;;;;;;;5137277;27;20451;-66
2022/08/14 13:37:41;;;;;;;6.57;5.97;;;;;;;;;;5137854;27;20518;-65
2022/08/14 13:40:09;;;;;;;6.93;6.43;;;;;;;;;;5137319;27;20470;-66
2022/08/14 13:42:36;;;;;;;7.97;7.27;;;;;;;;;;5137638;27;20980;-66
2022/08/14 13:45:05;;;;;;;7.50;6.97;;;;;;;;;;5137558;27;20477;-66
2022/08/14 13:47:34;;;;;;;7.17;6.40;;;;;;;;;;5137303;27;20471;-65
2022/08/14 13:50:02;;;;;;;6.90;6.50;;;;;;;;;;5136506;27;20471;-66
2022/08/14 13:52:34;;;;;;;5.97;5.57;;;;;;;;;;5136686;27;20523;-66
2022/08/14 13:55:03;;;;;;;8.47;7.10;;;;;;;;;;5136341;27;20956;-66
2022/08/14 13:57:32;;;;;;;8.43;6.37;;;;;;;;;;5137049;27;20531;-66
2022/08/14 14:00:01;;;;;;;7.40;6.80;;;;;;;;;;5136588;27;20529;-66
2022/08/14 14:02:30;;;;;;;7.60;6.90;;;;;;;;;;5137027;27;20797;-66
2022/08/14 14:04:59;;;;;;;7.80;7.20;;;;;;;;;;5136876;27;20561;-65
2022/08/14 14:07:27;;;;;;;6.90;6.40;;;;;;;;;;5136933;27;20481;-65
2022/08/14 14:10:00;;;;;;;7.00;6.50;;;;;;;;;;5136917;27;20518;-66
2022/08/14 14:12:28;;;;;;;6.90;6.40;;;;;;;;;;5137089;27;20903;-65
2022/08/14 14:14:55;;;;;;;6.73;6.33;;;;;;;;;;5136757;27;20564;-66
2022/08/14 14:17:24;;;;;;;7.87;7.27;;;;;;;;;;5136652;27;20516;-66
2022/08/14 14:19:51;;;;;;;7.47;6.37;;;;;;;;;;5136533;27;20536;-65
2022/08/14 14:22:18;;;;;;;6.70;6.10;;;;;;;;;;5136313;27;20476;-65
2022/08/14 14:24:46;;;;;;;7.30;6.70;;;;;;;;;;5136378;27;20479;-66
2022/08/14 14:27:16;;;;;;;7.53;6.83;;;;;;;;;;5136388;27;20612;-66
2022/08/14 14:29:45;;;;;;;6.33;5.90;;;;;;;;;;5136495;27;20528;-66
2022/08/14 14:32:13;;;;;;;7.03;6.43;;;;;;;;;;5136976;27;20473;-66
2022/08/14 14:34:42;;;;;;;7.00;6.50;;;;;;;;;;5135819;27;20444;-66
2022/08/14 14:37:11;;;;;;;8.03;7.43;;;;;;;;;;5135922;27;20532;-65
2022/08/14 14:39:38;;;;;;;7.57;7.07;;;;;;;;;;5136162;27;20434;-66
2022/08/14 14:42:06;;;;;;;7.43;6.83;;;;;;;;;;5136210;27;20849;-66
2022/08/14 14:44:39;;;;;;;7.87;6.20;;;;;;;;;;5136145;27;20453;-66
2022/08/14 14:47:08;;;;;;;6.60;6.10;;;;;;;;;;5136157;27;20435;-66
2022/08/14 14:49:35;;;;;;;6.60;6.10;;;;;;;;;;5135664;27;20931;-65
2022/08/14 14:52:04;;;;;;;8.13;7.33;;;;;;;;;;5135683;27;20551;-66
2022/08/14 14:54:32;;;;;;;7.73;6.97;;;;;;;;;;5136163;27;20453;-66